Aviation Digital Data Service (ADDS)

Output produced by METARs form (0630 UTC 23 February 2018)
found at http://aviationweather.gov/adds/metars/
 
KISO 230547Z 2306/2406 VRB03KT P6SM SCT045 
     FM230900 00000KT 3SM BR SCT015 
     FM231000 00000KT 2SM BR SCT006 OVC015 
     FM231400 05005KT P6SM BKN015 
     FM231700 18007KT P6SM SCT050 AMD LTD TO CLD VIS AND WIND